createdAt,value
2019-01-08T00:01:14.420Z,87.07
2019-01-08T00:06:47.251Z,87.60
2019-01-08T00:09:33.757Z,87.31
2019-01-08T00:12:20.548Z,86.95
2019-01-08T00:14:48.677Z,86.95
2019-01-08T00:17:35.457Z,86.96
2019-01-08T00:20:03.066Z,86.96
2019-01-08T00:22:30.728Z,87.26
2019-01-08T00:24:58.368Z,87.26
2019-01-08T00:27:44.850Z,87.55
2019-01-08T00:30:12.546Z,87.41
2019-01-08T00:32:41.153Z,87.37
2019-01-08T00:38:14.403Z,87.25
2019-01-08T00:40:42.089Z,87.23
2019-01-08T00:43:28.521Z,87.40
2019-01-08T00:45:56.182Z,87.40
2019-01-08T00:48:42.911Z,87.32
2019-01-08T00:51:10.611Z,87.43
2019-01-08T00:53:38.289Z,87.43
2019-01-08T00:56:24.713Z,87.73
2019-01-08T00:58:52.413Z,87.73
2019-01-08T01:01:20.029Z,87.49
2019-01-08T01:04:06.525Z,87.48
2019-01-08T01:06:34.214Z,87.49
2019-01-08T01:09:22.053Z,87.46
2019-01-08T01:11:49.764Z,87.46
2019-01-08T01:14:17.759Z,87.65
2019-01-08T01:16:45.397Z,87.73
2019-01-08T01:19:31.882Z,87.83
2019-01-08T01:21:59.562Z,87.90
2019-01-08T01:24:46.326Z,88.33
2019-01-08T01:27:13.924Z,88.33
2019-01-08T01:30:00.421Z,88.13
2019-01-08T01:32:39.827Z,88.23
2019-01-08T01:34:57.282Z,88.21
2019-01-08T01:37:43.771Z,88.03
2019-01-08T01:40:11.380Z,88.03
2019-01-08T01:42:57.861Z,87.73
2019-01-08T01:45:44.383Z,88.12
2019-01-08T01:48:23.731Z,88.12
2019-01-08T01:50:41.319Z,87.96
2019-01-08T01:53:08.928Z,88.65
2019-01-08T01:55:55.407Z,88.65
2019-01-08T01:58:23.020Z,88.12
2019-01-08T02:00:50.675Z,87.70
2019-01-08T02:03:37.179Z,87.85
2019-01-08T02:06:04.779Z,87.85
2019-01-08T02:08:32.465Z,87.75
2019-01-08T02:11:18.925Z,87.68
2019-01-08T02:13:46.588Z,87.61
2019-01-08T02:16:33.314Z,87.31
2019-01-08T02:19:01.019Z,87.31
2019-01-08T02:21:28.620Z,87.50
2019-01-08T02:24:15.373Z,87.81
2019-01-08T02:26:43.065Z,87.81
2019-01-08T02:29:16.538Z,87.57
2019-01-08T02:31:58.845Z,87.57
2019-01-08T02:34:26.438Z,87.57
2019-01-08T02:36:54.525Z,87.57
2019-01-08T02:39:41.044Z,87.65
2019-01-08T02:42:08.710Z,87.65
2019-01-08T02:44:36.481Z,87.36
2019-01-08T02:47:23.011Z,87.44
2019-01-08T02:49:52.360Z,87.44
2019-01-08T02:52:20.373Z,87.26
2019-01-08T02:55:06.868Z,87.16
2019-01-08T02:57:34.563Z,87.16
2019-01-08T03:00:02.170Z,87.21
2019-01-08T03:02:48.944Z,87.12
2019-01-08T03:05:16.574Z,87.12
2019-01-08T03:08:03.352Z,87.13
2019-01-08T03:10:30.980Z,87.13
2019-01-08T03:12:58.662Z,86.98
2019-01-08T03:15:26.327Z,86.62
2019-01-08T03:18:12.822Z,87.18
2019-01-08T03:20:40.483Z,86.31
2019-01-08T03:23:08.123Z,86.55
2019-01-08T03:25:54.624Z,86.55
2019-01-08T03:28:41.088Z,86.24
2019-01-08T03:31:27.603Z,86.24
2019-01-08T03:33:55.210Z,86.63
2019-01-08T03:36:24.801Z,86.63
2019-01-08T03:39:11.388Z,86.42
2019-01-08T03:41:58.190Z,86.50
2019-01-08T03:44:25.813Z,86.50
2019-01-08T03:47:12.568Z,86.06
2019-01-08T03:49:40.235Z,86.06
2019-01-08T03:52:26.932Z,85.91
2019-01-08T03:54:54.622Z,85.91
2019-01-08T03:57:22.640Z,86.30
2019-01-08T03:59:50.237Z,85.88
2019-01-08T04:02:36.749Z,85.88
2019-01-08T04:05:04.423Z,85.77
2019-01-08T04:07:51.186Z,85.85
2019-01-08T04:10:18.884Z,85.85
2019-01-08T04:13:06.077Z,85.38
2019-01-08T04:15:52.511Z,85.35
2019-01-08T04:18:39.324Z,85.14
2019-01-08T04:21:06.975Z,85.14
2019-01-08T04:23:34.668Z,85.45
2019-01-08T04:26:02.278Z,85.43
2019-01-08T04:28:48.906Z,85.39
2019-01-08T04:31:16.572Z,85.43
2019-01-08T04:33:44.185Z,85.23
2019-01-08T04:36:11.844Z,85.22
2019-01-08T04:38:58.335Z,85.20
2019-01-08T04:41:26.058Z,85.20
2019-01-08T04:43:53.668Z,85.08
2019-01-08T04:46:40.190Z,84.98
2019-01-08T04:49:07.896Z,84.95
2019-01-08T04:51:35.509Z,85.13
2019-01-08T04:54:22.018Z,85.10
2019-01-08T04:56:49.733Z,85.10
2019-01-08T04:59:17.431Z,84.80
2019-01-08T05:02:03.969Z,84.93
2019-01-08T05:04:31.676Z,84.93
2019-01-08T05:06:59.323Z,84.40
2019-01-08T05:09:45.814Z,84.56
2019-01-08T05:12:32.343Z,84.24
2019-01-08T05:15:18.856Z,84.24
2019-01-08T05:18:05.281Z,84.22
2019-01-08T05:20:51.765Z,84.01
2019-01-08T05:23:38.201Z,84.22
2019-01-08T05:26:05.978Z,84.22
2019-01-08T05:28:34.886Z,84.15
2019-01-08T05:31:02.553Z,84.24
2019-01-08T05:33:30.159Z,84.29
2019-01-08T05:36:16.686Z,84.33
2019-01-08T05:38:44.420Z,84.70
2019-01-08T05:41:12.110Z,84.70
2019-01-08T05:43:58.624Z,84.86
2019-01-08T05:46:26.308Z,85.01
2019-01-08T05:49:13.056Z,85.64
2019-01-08T05:51:40.718Z,85.21
2019-01-08T05:54:08.402Z,85.82
2019-01-08T05:56:54.833Z,85.82
2019-01-08T05:59:22.613Z,85.43
2019-01-08T06:01:50.199Z,85.43
2019-01-08T06:04:36.724Z,85.45
2019-01-08T06:07:04.345Z,85.51
2019-01-08T06:09:32.041Z,85.55
2019-01-08T06:12:18.555Z,85.60
2019-01-08T06:14:46.244Z,85.36
2019-01-08T06:17:28.001Z,85.36
2019-01-08T06:20:04.280Z,85.53
2019-01-08T06:22:31.882Z,85.53
2019-01-08T06:25:18.415Z,85.84
2019-01-08T06:27:46.391Z,85.84
2019-01-08T06:30:14.007Z,86.06
2019-01-08T06:33:00.497Z,86.10
2019-01-08T06:35:28.198Z,86.08
2019-01-08T06:37:55.938Z,86.06
2019-01-08T06:40:42.362Z,86.28
2019-01-08T06:43:28.843Z,86.25
2019-01-08T06:45:56.749Z,86.25
2019-01-08T06:48:24.848Z,85.97
2019-01-08T06:50:56.229Z,85.94
2019-01-08T06:53:40.621Z,85.89
2019-01-08T06:56:08.275Z,85.83
2019-01-08T06:58:54.782Z,85.80
2019-01-08T07:01:22.420Z,85.79
2019-01-08T07:03:50.355Z,85.74
2019-01-08T07:06:18.379Z,85.88
2019-01-08T07:09:04.912Z,85.73
2019-01-08T07:11:32.537Z,85.20
2019-01-08T07:14:00.171Z,85.45
2019-01-08T07:16:46.687Z,85.45
2019-01-08T07:19:14.322Z,85.30
2019-01-08T07:21:42.234Z,85.30
2019-01-08T07:24:09.949Z,85.28
2019-01-08T07:26:37.621Z,85.27
2019-01-08T07:29:24.126Z,85.20
2019-01-08T07:31:51.841Z,85.16
2019-01-08T07:34:38.297Z,85.39
2019-01-08T07:37:05.983Z,85.39
2019-01-08T07:39:52.506Z,85.05
2019-01-08T07:42:20.131Z,85.05
2019-01-08T07:45:20.828Z,84.85
2019-01-08T07:47:38.305Z,84.81
2019-01-08T07:50:06.269Z,84.72
2019-01-08T07:52:33.881Z,84.34
2019-01-08T07:55:01.586Z,84.34
2019-01-08T07:57:48.025Z,84.61
2019-01-08T08:00:34.534Z,84.47
2019-01-08T08:03:20.987Z,84.47
2019-01-08T08:05:48.707Z,84.35
2019-01-08T08:08:35.144Z,84.34
2019-01-08T08:11:05.584Z,84.34
2019-01-08T08:13:52.047Z,84.03
2019-01-08T08:16:19.729Z,83.87
2019-01-08T08:19:06.226Z,83.77
2019-01-08T08:21:33.894Z,83.70
2019-01-08T08:24:20.359Z,83.63
2019-01-08T08:26:48.049Z,83.78
2019-01-08T08:29:15.754Z,83.75
2019-01-08T08:32:02.204Z,83.11
2019-01-08T08:34:46.037Z,83.11
2019-01-08T08:37:32.845Z,83.14
2019-01-08T08:39:49.299Z,82.54
2019-01-08T08:42:17.287Z,82.29
2019-01-08T08:44:47.120Z,82.70
2019-01-08T08:47:33.557Z,82.55
2019-01-08T08:50:01.253Z,82.55
2019-01-08T08:52:28.918Z,82.56
2019-01-08T08:55:15.425Z,82.68
2019-01-08T08:57:43.077Z,82.68
2019-01-08T09:00:10.846Z,82.95
2019-01-08T09:02:57.349Z,82.56
2019-01-08T09:05:25.099Z,82.51
2019-01-08T09:07:53.091Z,82.51
2019-01-08T09:10:20.675Z,83.16
2019-01-08T09:12:48.377Z,83.16
2019-01-08T09:15:34.809Z,82.83
2019-01-08T09:18:02.527Z,82.90
2019-01-08T09:20:30.132Z,82.99
2019-01-08T09:23:16.636Z,83.06
2019-01-08T09:25:44.260Z,83.12
2019-01-08T09:28:12.296Z,83.18
2019-01-08T09:30:58.789Z,83.32
2019-01-08T09:33:26.767Z,83.38
2019-01-08T09:35:54.452Z,83.38
2019-01-08T09:38:22.181Z,83.46
2019-01-08T09:40:49.931Z,83.92
2019-01-08T09:43:36.365Z,83.54
2019-01-08T09:46:04.276Z,83.65
2019-01-08T09:48:32.037Z,83.65
2019-01-08T09:51:00.091Z,83.98
2019-01-08T09:53:27.820Z,83.87
2019-01-08T09:55:55.493Z,83.87
2019-01-08T09:58:43.016Z,84.78
2019-01-08T10:01:10.653Z,84.78
2019-01-08T10:03:38.624Z,84.30
2019-01-08T10:06:06.690Z,84.90
2019-01-08T10:08:34.906Z,84.90
2019-01-08T10:13:40.860Z,84.54
2019-01-08T10:16:08.493Z,84.67
2019-01-08T10:19:08.148Z,84.71
2019-01-08T10:21:44.562Z,84.65
2019-01-08T10:24:30.985Z,84.65
2019-01-08T10:26:58.713Z,84.44
2019-01-08T10:29:45.253Z,84.44
2019-01-08T10:32:12.934Z,84.90
2019-01-08T10:34:40.834Z,84.97
2019-01-08T10:37:08.575Z,84.74
2019-01-08T10:39:36.223Z,84.74
2019-01-08T10:42:04.265Z,84.97
2019-01-08T10:44:32.179Z,84.99
2019-01-08T10:47:00.344Z,84.98
2019-01-08T10:49:46.900Z,84.94
2019-01-08T10:52:27.676Z,84.94
2019-01-08T10:55:03.492Z,84.85
2019-01-08T10:57:31.128Z,84.82
2019-01-08T11:00:17.618Z,84.96
2019-01-08T11:02:45.367Z,84.32
2019-01-08T11:05:32.179Z,84.51
2019-01-08T11:07:59.816Z,84.51
2019-01-08T11:10:27.873Z,84.55
2019-01-08T11:13:14.417Z,84.64
2019-01-08T11:15:42.492Z,84.73
2019-01-08T11:18:10.228Z,84.41
2019-01-08T11:20:56.783Z,84.41
2019-01-08T11:23:24.814Z,84.11
2019-01-08T11:25:54.238Z,84.81
2019-01-08T11:28:40.775Z,84.06
2019-01-08T11:31:08.498Z,83.84
2019-01-08T11:33:54.954Z,83.96
2019-01-08T11:36:22.665Z,84.44
2019-01-08T11:38:50.633Z,84.01
2019-01-08T11:41:37.132Z,84.01
2019-01-08T11:44:05.154Z,84.25
2019-01-08T11:46:32.838Z,84.38
2019-01-08T11:49:20.945Z,84.22
2019-01-08T11:51:48.561Z,84.22
2019-01-08T11:54:16.553Z,84.50
2019-01-08T11:57:03.047Z,84.78
2019-01-08T11:59:30.799Z,84.78
2019-01-08T12:02:17.217Z,84.63
2019-01-08T12:04:44.879Z,84.43
2019-01-08T12:07:14.161Z,84.74
2019-01-08T12:10:00.702Z,84.74
2019-01-08T12:12:28.324Z,84.16
2019-01-08T12:14:58.291Z,83.93
2019-01-08T12:17:44.803Z,83.56
2019-01-08T12:20:12.572Z,83.17
2019-01-08T12:22:59.101Z,83.17
2019-01-08T12:25:29.538Z,83.48
2019-01-08T12:27:57.754Z,83.45
2019-01-08T12:30:44.277Z,83.53
2019-01-08T12:35:58.618Z,83.20
2019-01-08T12:38:26.636Z,83.04
2019-01-08T12:40:54.360Z,82.89
2019-01-08T12:43:40.855Z,82.82
2019-01-08T12:48:59.533Z,82.62
2019-01-08T12:51:27.512Z,82.72
2019-01-08T12:53:55.240Z,82.72
2019-01-08T12:56:41.838Z,83.23
2019-01-08T12:59:09.511Z,83.34
2019-01-08T13:01:37.181Z,83.48
2019-01-08T13:04:23.634Z,83.55
2019-01-08T13:06:51.709Z,83.54
2019-01-08T13:09:19.376Z,83.40
2019-01-08T13:12:05.872Z,83.40
2019-01-08T13:14:33.502Z,83.64
2019-01-08T13:17:11.215Z,84.06
2019-01-08T13:19:51.494Z,84.06
2019-01-08T13:22:19.147Z,83.97
2019-01-08T13:25:05.636Z,84.30
2019-01-08T13:27:33.244Z,84.74
2019-01-08T13:30:01.217Z,84.74
2019-01-08T13:32:28.840Z,84.57
2019-01-08T13:35:13.090Z,84.52
2019-01-08T13:37:47.162Z,84.31
2019-01-08T13:40:14.940Z,84.27
2019-01-08T13:45:35.861Z,84.18
2019-01-08T13:48:03.516Z,84.12
2019-01-08T13:50:50.006Z,84.04
2019-01-08T13:53:17.641Z,84.09
2019-01-08T13:55:45.330Z,84.17
2019-01-08T13:58:31.761Z,84.24
2019-01-08T14:00:59.477Z,84.31
2019-01-08T14:03:27.215Z,84.35
2019-01-08T14:05:55.127Z,84.47
2019-01-08T14:08:23.175Z,84.57
2019-01-08T14:13:32.192Z,84.59
2019-01-08T14:16:00.071Z,84.43
2019-01-08T14:18:27.748Z,84.43
2019-01-08T14:21:14.242Z,84.18
2019-01-08T14:23:42.042Z,84.08
2019-01-08T14:26:09.702Z,83.70
2019-01-08T14:28:56.213Z,83.70
2019-01-08T14:31:23.845Z,83.94
2019-01-08T14:33:51.604Z,84.00
2019-01-08T14:36:39.195Z,83.94
2019-01-08T14:39:07.041Z,84.07
2019-01-08T14:41:53.570Z,84.07
2019-01-08T14:44:21.280Z,84.22
2019-01-08T14:47:08.137Z,84.50
2019-01-08T14:49:36.103Z,84.50
2019-01-08T14:52:03.829Z,84.48
2019-01-08T14:54:50.319Z,84.42
2019-01-08T14:57:18.028Z,84.84
2019-01-08T15:00:04.541Z,84.30
2019-01-08T15:02:32.199Z,84.60
2019-01-08T15:05:00.421Z,84.60
2019-01-08T15:07:42.215Z,84.73
2019-01-08T15:12:50.679Z,84.78
2019-01-08T15:15:18.387Z,84.55
2019-01-08T15:17:46.397Z,84.55
2019-01-08T15:20:14.161Z,84.79
2019-01-08T15:22:41.903Z,84.75
2019-01-08T15:25:28.802Z,84.75
2019-01-08T15:27:56.445Z,84.69
2019-01-08T15:30:24.149Z,85.07
2019-01-08T15:33:10.636Z,85.07
2019-01-08T15:35:38.268Z,84.67
2019-01-08T15:38:06.426Z,84.66
2019-01-08T15:40:52.957Z,84.86
2019-01-08T15:43:20.652Z,84.86
2019-01-08T15:45:48.267Z,84.78
2019-01-08T15:48:34.812Z,84.76
2019-01-08T15:51:02.481Z,84.83
2019-01-08T15:53:30.087Z,84.87
2019-01-08T15:55:57.804Z,84.87
2019-01-08T15:58:25.506Z,84.91
2019-01-08T16:00:53.538Z,84.75
2019-01-08T16:03:21.204Z,84.75
2019-01-08T16:05:48.916Z,84.83
2019-01-08T16:08:35.420Z,84.73
2019-01-08T16:11:03.107Z,84.67
2019-01-08T16:13:32.546Z,84.55
2019-01-08T16:16:21.432Z,84.36
2019-01-08T16:18:49.064Z,83.58
2019-01-08T16:21:16.687Z,84.01
2019-01-08T16:24:03.195Z,83.48
2019-01-08T16:26:45.003Z,83.48
2019-01-08T16:31:34.859Z,83.16
2019-01-08T16:34:02.613Z,83.16
2019-01-08T16:39:23.566Z,82.99
2019-01-08T16:41:51.307Z,82.99
2019-01-08T16:44:19.761Z,82.89
2019-01-08T16:46:47.499Z,82.95
2019-01-08T16:49:15.318Z,82.73
2019-01-08T16:52:01.751Z,82.22
2019-01-08T16:54:29.409Z,82.22
2019-01-08T16:57:15.902Z,82.44
2019-01-08T16:59:43.549Z,82.48
2019-01-08T17:02:30.092Z,82.51
2019-01-08T17:04:58.119Z,82.54
2019-01-08T17:07:25.778Z,82.24
2019-01-08T17:10:12.312Z,82.69
2019-01-08T17:12:40.392Z,82.99
2019-01-08T17:15:26.920Z,82.99
2019-01-08T17:17:54.534Z,82.29
2019-01-08T17:20:22.285Z,82.29
2019-01-08T17:23:08.714Z,82.48
2019-01-08T17:31:03.594Z,82.13
2019-01-08T17:33:34.084Z,82.56
2019-01-08T17:36:00.891Z,82.56
2019-01-08T17:38:28.941Z,82.18
2019-01-08T17:41:15.841Z,81.49
2019-01-08T17:43:44.021Z,81.49
2019-01-08T17:46:30.537Z,82.26
2019-01-08T17:48:58.169Z,82.26
2019-01-08T17:51:26.356Z,81.56
2019-01-08T17:53:54.449Z,81.96
2019-01-08T17:56:22.552Z,81.58
2019-01-08T17:58:50.173Z,82.43
2019-01-08T18:01:36.673Z,82.02
2019-01-08T18:04:04.441Z,82.02
2019-01-08T18:06:32.156Z,82.13
2019-01-08T18:09:18.625Z,82.16
2019-01-08T18:12:16.933Z,82.75
2019-01-08T18:14:53.299Z,82.75
2019-01-08T18:17:20.889Z,82.83
2019-01-08T18:19:48.822Z,83.13
2019-01-08T18:22:16.505Z,83.41
2019-01-08T18:24:44.147Z,83.63
2019-01-08T18:27:30.653Z,84.00
2019-01-08T18:29:58.382Z,84.00
2019-01-08T18:32:44.841Z,84.96
2019-01-08T18:35:12.489Z,84.96
2019-01-08T18:37:40.103Z,84.85
2019-01-08T18:40:26.645Z,84.52
2019-01-08T18:42:54.422Z,84.83
2019-01-08T18:45:22.024Z,84.44
2019-01-08T18:48:08.559Z,84.41
2019-01-08T18:50:36.190Z,84.38
2019-01-08T18:53:03.952Z,84.38
2019-01-08T18:55:50.457Z,84.15
2019-01-08T18:58:18.418Z,84.15
2019-01-08T19:00:46.177Z,84.08
2019-01-08T19:06:08.093Z,84.79
2019-01-08T19:08:57.016Z,84.40
2019-01-08T19:11:24.731Z,84.40
2019-01-08T19:14:11.374Z,84.53
2019-01-08T19:16:39.055Z,84.57
2019-01-08T19:19:06.691Z,85.05
2019-01-08T19:21:53.240Z,85.05
2019-01-08T19:24:23.660Z,84.49
2019-01-08T19:27:10.174Z,84.49
2019-01-08T19:29:37.846Z,84.80
2019-01-08T19:32:05.580Z,84.81
2019-01-08T19:34:52.092Z,84.82
2019-01-08T19:37:19.786Z,85.04
2019-01-08T19:39:47.438Z,85.04
2019-01-08T19:42:34.379Z,84.58
2019-01-08T19:45:01.994Z,84.26
2019-01-08T19:47:29.696Z,84.06
2019-01-08T19:50:16.219Z,84.63
2019-01-08T19:52:43.856Z,84.01
2019-01-08T19:55:11.492Z,84.01
2019-01-08T19:58:10.376Z,84.47
2019-01-08T20:00:27.288Z,84.05
2019-01-08T20:02:55.199Z,84.05
2019-01-08T20:05:22.852Z,84.61
2019-01-08T20:07:50.679Z,84.61
2019-01-08T20:10:37.182Z,84.02
2019-01-08T20:13:04.892Z,84.02
2019-01-08T20:15:32.626Z,84.35
2019-01-08T20:18:00.665Z,84.36
2019-01-08T20:20:28.300Z,84.38
2019-01-08T20:22:58.991Z,83.96
2019-01-08T20:25:45.515Z,83.96
2019-01-08T20:28:13.352Z,84.23
2019-01-08T20:30:59.814Z,84.51
2019-01-08T20:36:20.440Z,84.01
2019-01-08T20:39:06.867Z,83.74
2019-01-08T20:41:54.409Z,83.74
2019-01-08T20:44:22.031Z,83.74
2019-01-08T20:47:08.523Z,83.31
2019-01-08T20:49:36.239Z,84.03
2019-01-08T20:52:22.701Z,83.32
2019-01-08T20:57:43.582Z,83.80
2019-01-08T21:00:11.444Z,83.80
2019-01-08T21:02:57.927Z,83.47
2019-01-08T21:05:25.671Z,83.24
2019-01-08T21:08:24.746Z,83.42
2019-01-08T21:10:41.525Z,83.42
2019-01-08T21:13:09.151Z,83.31
2019-01-08T21:18:25.287Z,83.30
2019-01-08T21:21:11.740Z,83.26
2019-01-08T21:23:58.232Z,82.96
2019-01-08T21:26:44.711Z,83.67
2019-01-08T21:29:12.388Z,83.11
2019-01-08T21:31:40.088Z,83.11
2019-01-08T21:34:26.614Z,83.58
2019-01-08T21:36:54.258Z,83.58
2019-01-08T21:39:21.950Z,83.37
2019-01-08T21:42:08.406Z,83.37
2019-01-08T21:44:54.929Z,83.72
2019-01-08T21:47:41.420Z,83.72
2019-01-08T21:50:09.124Z,83.78
2019-01-08T21:52:55.588Z,83.79
2019-01-08T21:55:42.527Z,83.87
2019-01-08T21:58:28.992Z,84.09
2019-01-08T22:00:56.711Z,84.18
2019-01-08T22:03:24.778Z,84.18
2019-01-08T22:06:04.723Z,84.05
2019-01-08T22:08:22.308Z,84.09
2019-01-08T22:10:50.138Z,84.16
2019-01-08T22:13:36.602Z,84.16
2019-01-08T22:16:04.218Z,84.13
2019-01-08T22:21:37.117Z,84.54
2019-01-08T22:24:23.620Z,84.38
2019-01-08T22:26:51.572Z,84.38
2019-01-08T22:29:19.229Z,84.17
2019-01-08T22:31:47.089Z,84.17
2019-01-08T22:34:36.216Z,84.13
2019-01-08T22:37:06.218Z,83.73
2019-01-08T22:39:34.354Z,83.61
2019-01-08T22:42:02.043Z,83.57
2019-01-08T22:44:48.532Z,83.43
2019-01-08T22:47:35.012Z,83.43
2019-01-08T22:50:02.928Z,83.70
2019-01-08T22:52:51.346Z,83.68
2019-01-08T22:55:37.809Z,83.68
2019-01-08T22:58:05.411Z,83.40
2019-01-08T23:00:51.931Z,83.49
2019-01-08T23:03:19.614Z,83.29
2019-01-08T23:05:47.327Z,83.29
2019-01-08T23:08:33.807Z,83.44
2019-01-08T23:11:01.491Z,83.46
2019-01-08T23:13:29.181Z,83.93
2019-01-08T23:16:15.670Z,83.91
2019-01-08T23:18:43.375Z,83.91
2019-01-08T23:21:10.999Z,83.84
2019-01-08T23:23:57.518Z,83.36
2019-01-08T23:26:25.156Z,83.75
2019-01-08T23:28:53.127Z,83.75
2019-01-08T23:31:39.641Z,83.29
2019-01-08T23:34:07.297Z,83.29
2019-01-08T23:39:08.084Z,83.17
2019-01-08T23:41:54.623Z,83.03
2019-01-08T23:44:22.220Z,83.20
2019-01-08T23:46:49.841Z,83.20
2019-01-08T23:49:36.346Z,83.40
2019-01-08T23:52:06.265Z,83.50
2019-01-08T23:55:04.737Z,82.90
